sensor_id;sensor_type;location;lat;lon;timestamp;pressure;altitude;pressure_sealevel;temperature;humidity
70971;BME280;58632;51.718;19.446;2024-01-16T00:02:12;97702.82;;;-1.99;100.00
70971;BME280;58632;51.718;19.446;2024-01-16T00:04:38;97704.75;;;-1.99;100.00
70971;BME280;58632;51.718;19.446;2024-01-16T00:07:05;97709.41;;;-1.98;100.00
70971;BME280;58632;51.718;19.446;2024-01-16T00:09:32;97707.22;;;-1.95;100.00
70971;BME280;58632;51.718;19.446;2024-01-16T00:11:58;97713.33;;;-1.91;100.00
70971;BME280;58632;51.718;19.446;2024-01-16T00:14:23;97721.97;;;-1.91;100.00
70971;BME280;58632;51.718;19.446;2024-01-16T00:16:49;97727.40;;;-1.93;100.00
70971;BME280;58632;51.718;19.446;2024-01-16T00:19:14;97731.86;;;-1.93;100.00
70971;BME280;58632;51.718;19.446;2024-01-16T00:21:42;97730.96;;;-1.93;100.00
70971;BME280;58632;51.718;19.446;2024-01-16T00:24:10;97727.37;;;-1.94;100.00
70971;BME280;58632;51.718;19.446;2024-01-16T00:26:36;97734.39;;;-1.97;100.00
70971;BME280;58632;51.718;19.446;2024-01-16T00:29:02;97738.61;;;-2.00;100.00
70971;BME280;58632;51.718;19.446;2024-01-16T00:31:27;97737.56;;;-2.02;100.00
70971;BME280;58632;51.718;19.446;2024-01-16T00:33:53;97736.95;;;-1.99;100.00
70971;BME280;58632;51.718;19.446;2024-01-16T00:36:18;97738.73;;;-1.97;100.00
70971;BME280;58632;51.718;19.446;2024-01-16T00:38:44;97743.63;;;-1.99;100.00
70971;BME280;58632;51.718;19.446;2024-01-16T00:41:10;97745.75;;;-2.00;100.00
70971;BME280;58632;51.718;19.446;2024-01-16T00:43:36;97755.31;;;-2.01;100.00
70971;BME280;58632;51.718;19.446;2024-01-16T00:46:01;97757.29;;;-2.05;100.00
70971;BME280;58632;51.718;19.446;2024-01-16T00:48:26;97758.63;;;-2.04;100.00
70971;BME280;58632;51.718;19.446;2024-01-16T00:50:52;97761.67;;;-2.07;100.00
70971;BME280;58632;51.718;19.446;2024-01-16T00:53:17;97766.36;;;-2.09;100.00
70971;BME280;58632;51.718;19.446;2024-01-16T00:55:45;97764.10;;;-2.08;100.00
70971;BME280;58632;51.718;19.446;2024-01-16T00:58:11;97769.44;;;-2.06;100.00
70971;BME280;58632;51.718;19.446;2024-01-16T01:00:36;97772.17;;;-2.06;100.00
70971;BME280;58632;51.718;19.446;2024-01-16T01:03:02;97774.67;;;-2.09;100.00
70971;BME280;58632;51.718;19.446;2024-01-16T01:05:29;97777.83;;;-2.08;100.00
70971;BME280;58632;51.718;19.446;2024-01-16T01:07:57;97772.61;;;-2.11;100.00
70971;BME280;58632;51.718;19.446;2024-01-16T01:10:22;97772.33;;;-2.14;100.00
70971;BME280;58632;51.718;19.446;2024-01-16T01:12:48;97773.50;;;-2.17;100.00
70971;BME280;58632;51.718;19.446;2024-01-16T01:15:13;97770.95;;;-2.16;100.00
70971;BME280;58632;51.718;19.446;2024-01-16T01:17:39;97768.42;;;-2.15;100.00
70971;BME280;58632;51.718;19.446;2024-01-16T01:20:05;97775.19;;;-2.16;100.00
70971;BME280;58632;51.718;19.446;2024-01-16T01:22:30;97773.91;;;-2.21;100.00
70971;BME280;58632;51.718;19.446;2024-01-16T01:24:58;97776.95;;;-2.24;100.00
70971;BME280;58632;51.718;19.446;2024-01-16T01:27:23;97777.69;;;-2.27;100.00
70971;BME280;58632;51.718;19.446;2024-01-16T01:29:49;97780.41;;;-2.30;100.00
70971;BME280;58632;51.718;19.446;2024-01-16T01:32:14;97787.76;;;-2.35;100.00
70971;BME280;58632;51.718;19.446;2024-01-16T01:34:41;97787.41;;;-2.37;100.00
70971;BME280;58632;51.718;19.446;2024-01-16T01:37:09;97792.03;;;-2.39;100.00
70971;BME280;58632;51.718;19.446;2024-01-16T01:39:35;97795.23;;;-2.41;100.00
70971;BME280;58632;51.718;19.446;2024-01-16T01:42:00;97801.31;;;-2.44;100.00
70971;BME280;58632;51.718;19.446;2024-01-16T01:44:26;97800.60;;;-2.51;100.00
70971;BME280;58632;51.718;19.446;2024-01-16T01:46:53;97801.04;;;-2.58;100.00
70971;BME280;58632;51.718;19.446;2024-01-16T01:49:19;97806.76;;;-2.67;100.00
70971;BME280;58632;51.718;19.446;2024-01-16T01:51:45;97807.88;;;-2.77;100.00
70971;BME280;58632;51.718;19.446;2024-01-16T01:54:10;97812.80;;;-2.87;100.00
70971;BME280;58632;51.718;19.446;2024-01-16T01:56:41;97815.02;;;-2.97;100.00
70971;BME280;58632;51.718;19.446;2024-01-16T01:59:07;97817.91;;;-3.07;100.00
70971;BME280;58632;51.718;19.446;2024-01-16T02:01:33;97822.23;;;-3.12;100.00
70971;BME280;58632;51.718;19.446;2024-01-16T02:03:59;97823.44;;;-3.15;100.00
70971;BME280;58632;51.718;19.446;2024-01-16T02:06:25;97826.77;;;-3.19;100.00
70971;BME280;58632;51.718;19.446;2024-01-16T02:12:12;97838.29;;;-3.34;100.00
70971;BME280;58632;51.718;19.446;2024-01-16T02:14:37;97838.55;;;-3.40;100.00
70971;BME280;58632;51.718;19.446;2024-01-16T02:17:03;97841.15;;;-3.46;100.00
70971;BME280;58632;51.718;19.446;2024-01-16T02:19:28;97843.27;;;-3.51;100.00
70971;BME280;58632;51.718;19.446;2024-01-16T02:21:54;97846.74;;;-3.58;100.00
70971;BME280;58632;51.718;19.446;2024-01-16T02:24:22;97849.48;;;-3.67;100.00
70971;BME280;58632;51.718;19.446;2024-01-16T02:26:47;97852.71;;;-3.72;100.00
70971;BME280;58632;51.718;19.446;2024-01-16T02:29:13;97862.02;;;-3.73;100.00
70971;BME280;58632;51.718;19.446;2024-01-16T02:31:38;97866.75;;;-3.76;100.00
70971;BME280;58632;51.718;19.446;2024-01-16T02:34:04;97865.46;;;-3.77;100.00
70971;BME280;58632;51.718;19.446;2024-01-16T02:36:29;97873.62;;;-3.80;100.00
70971;BME280;58632;51.718;19.446;2024-01-16T02:38:55;97876.46;;;-3.82;100.00
70971;BME280;58632;51.718;19.446;2024-01-16T02:41:20;97878.88;;;-3.84;100.00
70971;BME280;58632;51.718;19.446;2024-01-16T02:43:46;97877.24;;;-3.88;100.00
70971;BME280;58632;51.718;19.446;2024-01-16T02:46:11;97879.61;;;-3.91;100.00
70971;BME280;58632;51.718;19.446;2024-01-16T02:48:37;97884.15;;;-3.92;100.00
70971;BME280;58632;51.718;19.446;2024-01-16T02:51:03;97893.84;;;-3.94;100.00
70971;BME280;58632;51.718;19.446;2024-01-16T02:53:29;97902.01;;;-3.93;100.00
70971;BME280;58632;51.718;19.446;2024-01-16T02:55:54;97905.02;;;-3.95;100.00
70971;BME280;58632;51.718;19.446;2024-01-16T02:58:20;97913.75;;;-4.00;100.00
70971;BME280;58632;51.718;19.446;2024-01-16T03:00:46;97911.36;;;-4.07;100.00
70971;BME280;58632;51.718;19.446;2024-01-16T03:03:12;97910.54;;;-4.13;100.00
70971;BME280;58632;51.718;19.446;2024-01-16T03:05:37;97913.12;;;-4.18;100.00
70971;BME280;58632;51.718;19.446;2024-01-16T03:08:03;97917.72;;;-4.25;100.00
70971;BME280;58632;51.718;19.446;2024-01-16T03:10:28;97921.43;;;-4.32;100.00
70971;BME280;58632;51.718;19.446;2024-01-16T03:12:53;97925.88;;;-4.39;100.00
70971;BME280;58632;51.718;19.446;2024-01-16T03:15:19;97929.09;;;-4.44;100.00
70971;BME280;58632;51.718;19.446;2024-01-16T03:17:45;97931.83;;;-4.48;100.00
70971;BME280;58632;51.718;19.446;2024-01-16T03:20:11;97935.45;;;-4.46;100.00
70971;BME280;58632;51.718;19.446;2024-01-16T03:22:36;97931.17;;;-4.42;100.00
70971;BME280;58632;51.718;19.446;2024-01-16T03:25:02;97934.33;;;-4.38;100.00
70971;BME280;58632;51.718;19.446;2024-01-16T03:27:27;97938.50;;;-4.39;100.00
70971;BME280;58632;51.718;19.446;2024-01-16T03:29:53;97934.58;;;-4.40;100.00
70971;BME280;58632;51.718;19.446;2024-01-16T03:32:19;97936.24;;;-4.40;100.00
70971;BME280;58632;51.718;19.446;2024-01-16T03:34:44;97932.98;;;-4.44;100.00
70971;BME280;58632;51.718;19.446;2024-01-16T03:37:12;97932.20;;;-4.47;100.00
70971;BME280;58632;51.718;19.446;2024-01-16T03:39:37;97934.66;;;-4.50;100.00
70971;BME280;58632;51.718;19.446;2024-01-16T03:42:03;97939.36;;;-4.54;100.00
70971;BME280;58632;51.718;19.446;2024-01-16T03:44:28;97937.55;;;-4.56;100.00
70971;BME280;58632;51.718;19.446;2024-01-16T03:46:54;97943.05;;;-4.59;100.00
70971;BME280;58632;51.718;19.446;2024-01-16T03:49:20;97941.23;;;-4.62;100.00
70971;BME280;58632;51.718;19.446;2024-01-16T03:51:49;97944.29;;;-4.59;100.00
70971;BME280;58632;51.718;19.446;2024-01-16T03:54:14;97949.30;;;-4.57;100.00
70971;BME280;58632;51.718;19.446;2024-01-16T03:56:40;97953.31;;;-4.52;100.00
70971;BME280;58632;51.718;19.446;2024-01-16T03:59:05;97956.61;;;-4.45;100.00
70971;BME280;58632;51.718;19.446;2024-01-16T04:01:34;97952.17;;;-4.39;100.00
70971;BME280;58632;51.718;19.446;2024-01-16T04:04:02;97956.98;;;-4.36;100.00
70971;BME280;58632;51.718;19.446;2024-01-16T04:06:48;97963.81;;;-4.31;100.00
70971;BME280;58632;51.718;19.446;2024-01-16T04:09:13;97967.02;;;-4.28;100.00
70971;BME280;58632;51.718;19.446;2024-01-16T04:11:39;97971.73;;;-4.31;100.00
70971;BME280;58632;51.718;19.446;2024-01-16T04:14:05;97974.98;;;-4.35;100.00
70971;BME280;58632;51.718;19.446;2024-01-16T04:16:30;97973.76;;;-4.40;100.00
70971;BME280;58632;51.718;19.446;2024-01-16T04:18:56;97976.77;;;-4.44;100.00
70971;BME280;58632;51.718;19.446;2024-01-16T04:21:21;97978.42;;;-4.46;100.00
70971;BME280;58632;51.718;19.446;2024-01-16T04:23:47;97980.77;;;-4.45;100.00
70971;BME280;58632;51.718;19.446;2024-01-16T04:26:15;97988.25;;;-4.44;100.00
70971;BME280;58632;51.718;19.446;2024-01-16T04:28:40;97988.14;;;-4.46;100.00
70971;BME280;58632;51.718;19.446;2024-01-16T04:31:06;97982.10;;;-4.47;100.00
70971;BME280;58632;51.718;19.446;2024-01-16T04:33:31;97983.98;;;-4.46;100.00
70971;BME280;58632;51.718;19.446;2024-01-16T04:35:57;97989.69;;;-4.48;100.00
70971;BME280;58632;51.718;19.446;2024-01-16T04:38:22;97996.80;;;-4.49;100.00
70971;BME280;58632;51.718;19.446;2024-01-16T04:40:48;97997.98;;;-4.49;100.00
70971;BME280;58632;51.718;19.446;2024-01-16T04:43:14;98007.75;;;-4.51;100.00
70971;BME280;58632;51.718;19.446;2024-01-16T04:45:39;98005.78;;;-4.54;100.00
70971;BME280;58632;51.718;19.446;2024-01-16T04:48:05;98012.67;;;-4.55;100.00
70971;BME280;58632;51.718;19.446;2024-01-16T04:50:30;98017.74;;;-4.54;100.00
70971;BME280;58632;51.718;19.446;2024-01-16T04:52:58;98025.98;;;-4.54;100.00
70971;BME280;58632;51.718;19.446;2024-01-16T04:55:26;98026.18;;;-4.58;100.00
70971;BME280;58632;51.718;19.446;2024-01-16T04:57:52;98025.86;;;-4.63;100.00
70971;BME280;58632;51.718;19.446;2024-01-16T05:00:17;98035.14;;;-4.71;100.00
70971;BME280;58632;51.718;19.446;2024-01-16T05:02:43;98041.98;;;-4.75;100.00
70971;BME280;58632;51.718;19.446;2024-01-16T05:05:08;98047.90;;;-4.78;100.00
70971;BME280;58632;51.718;19.446;2024-01-16T05:07:34;98048.27;;;-4.80;100.00
70971;BME280;58632;51.718;19.446;2024-01-16T05:10:00;98057.23;;;-4.84;100.00
70971;BME280;58632;51.718;19.446;2024-01-16T05:12:26;98061.62;;;-4.81;100.00
70971;BME280;58632;51.718;19.446;2024-01-16T05:14:51;98063.18;;;-4.78;100.00
70971;BME280;58632;51.718;19.446;2024-01-16T05:17:17;98069.17;;;-4.75;100.00
70971;BME280;58632;51.718;19.446;2024-01-16T05:19:44;98071.62;;;-4.74;100.00
70971;BME280;58632;51.718;19.446;2024-01-16T05:22:10;98077.50;;;-4.72;100.00
70971;BME280;58632;51.718;19.446;2024-01-16T05:24:36;98088.29;;;-4.74;100.00
70971;BME280;58632;51.718;19.446;2024-01-16T05:27:01;98087.58;;;-4.79;100.00
70971;BME280;58632;51.718;19.446;2024-01-16T05:29:29;98089.33;;;-4.84;100.00
70971;BME280;58632;51.718;19.446;2024-01-16T05:31:55;98096.95;;;-4.89;100.00
70971;BME280;58632;51.718;19.446;2024-01-16T05:34:20;98096.90;;;-4.90;100.00
70971;BME280;58632;51.718;19.446;2024-01-16T05:36:46;98101.59;;;-4.93;100.00
70971;BME280;58632;51.718;19.446;2024-01-16T05:39:11;98104.36;;;-4.92;100.00
70971;BME280;58632;51.718;19.446;2024-01-16T05:41:37;98105.42;;;-4.95;100.00
70971;BME280;58632;51.718;19.446;2024-01-16T05:44:03;98110.96;;;-4.96;100.00
70971;BME280;58632;51.718;19.446;2024-01-16T05:46:31;98121.86;;;-4.96;100.00
70971;BME280;58632;51.718;19.446;2024-01-16T05:48:56;98123.08;;;-4.98;100.00
70971;BME280;58632;51.718;19.446;2024-01-16T05:51:22;98127.59;;;-4.95;100.00
70971;BME280;58632;51.718;19.446;2024-01-16T05:53:48;98131.77;;;-4.86;100.00
70971;BME280;58632;51.718;19.446;2024-01-16T05:56:13;98138.86;;;-4.79;100.00
70971;BME280;58632;51.718;19.446;2024-01-16T05:58:39;98140.54;;;-4.71;100.00
70971;BME280;58632;51.718;19.446;2024-01-16T06:01:05;98145.09;;;-4.65;100.00
70971;BME280;58632;51.718;19.446;2024-01-16T06:03:30;98144.09;;;-4.62;100.00
70971;BME280;58632;51.718;19.446;2024-01-16T06:05:56;98148.85;;;-4.60;100.00
70971;BME280;58632;51.718;19.446;2024-01-16T06:08:21;98149.07;;;-4.59;100.00
70971;BME280;58632;51.718;19.446;2024-01-16T06:10:47;98160.39;;;-4.57;100.00
70971;BME280;58632;51.718;19.446;2024-01-16T06:13:12;98165.20;;;-4.58;100.00
70971;BME280;58632;51.718;19.446;2024-01-16T06:15:40;98167.65;;;-4.61;100.00
70971;BME280;58632;51.718;19.446;2024-01-16T06:18:06;98171.13;;;-4.59;100.00
70971;BME280;58632;51.718;19.446;2024-01-16T06:20:32;98175.63;;;-4.57;100.00
70971;BME280;58632;51.718;19.446;2024-01-16T06:22:58;98186.16;;;-4.55;100.00
70971;BME280;58632;51.718;19.446;2024-01-16T06:25:23;98184.77;;;-4.56;100.00
70971;BME280;58632;51.718;19.446;2024-01-16T06:27:48;98186.03;;;-4.59;100.00
70971;BME280;58632;51.718;19.446;2024-01-16T06:30:14;98186.45;;;-4.64;100.00
70971;BME280;58632;51.718;19.446;2024-01-16T06:32:39;98195.23;;;-4.72;100.00
70971;BME280;58632;51.718;19.446;2024-01-16T06:35:05;98205.41;;;-4.76;100.00
70971;BME280;58632;51.718;19.446;2024-01-16T06:37:30;98206.58;;;-4.80;100.00
70971;BME280;58632;51.718;19.446;2024-01-16T06:39:56;98212.88;;;-4.80;100.00
70971;BME280;58632;51.718;19.446;2024-01-16T06:42:21;98215.73;;;-4.76;100.00
70971;BME280;58632;51.718;19.446;2024-01-16T06:44:47;98224.62;;;-4.71;100.00
70971;BME280;58632;51.718;19.446;2024-01-16T06:47:12;98226.19;;;-4.66;100.00
70971;BME280;58632;51.718;19.446;2024-01-16T06:49:38;98228.72;;;-4.61;100.00
70971;BME280;58632;51.718;19.446;2024-01-16T06:52:03;98234.87;;;-4.58;100.00
70971;BME280;58632;51.718;19.446;2024-01-16T06:54:28;98234.34;;;-4.57;100.00
70971;BME280;58632;51.718;19.446;2024-01-16T06:56:54;98237.35;;;-4.56;100.00
70971;BME280;58632;51.718;19.446;2024-01-16T06:59:19;98243.86;;;-4.56;100.00
70971;BME280;58632;51.718;19.446;2024-01-16T07:01:46;98242.70;;;-4.55;100.00
70971;BME280;58632;51.718;19.446;2024-01-16T07:04:12;98249.22;;;-4.52;100.00
70971;BME280;58632;51.718;19.446;2024-01-16T07:06:39;98254.16;;;-4.47;100.00
70971;BME280;58632;51.718;19.446;2024-01-16T07:09:05;98258.55;;;-4.44;100.00
70971;BME280;58632;51.718;19.446;2024-01-16T07:11:30;98271.06;;;-4.43;100.00
70971;BME280;58632;51.718;19.446;2024-01-16T07:13:56;98274.48;;;-4.42;100.00
70971;BME280;58632;51.718;19.446;2024-01-16T07:16:21;98277.10;;;-4.42;100.00
70971;BME280;58632;51.718;19.446;2024-01-16T07:18:47;98282.88;;;-4.41;100.00
70971;BME280;58632;51.718;19.446;2024-01-16T07:21:19;98294.46;;;-4.42;100.00
70971;BME280;58632;51.718;19.446;2024-01-16T07:23:45;98301.31;;;-4.44;100.00
70971;BME280;58632;51.718;19.446;2024-01-16T07:26:11;98307.18;;;-4.45;100.00
70971;BME280;58632;51.718;19.446;2024-01-16T07:28:37;98305.09;;;-4.48;100.00
70971;BME280;58632;51.718;19.446;2024-01-16T07:31:02;98310.73;;;-4.51;100.00
70971;BME280;58632;51.718;19.446;2024-01-16T07:33:28;98310.98;;;-4.53;100.00
70971;BME280;58632;51.718;19.446;2024-01-16T07:35:53;98314.60;;;-4.55;100.00
70971;BME280;58632;51.718;19.446;2024-01-16T07:38:19;98319.83;;;-4.58;100.00
70971;BME280;58632;51.718;19.446;2024-01-16T07:40:44;98323.45;;;-4.61;100.00
70971;BME280;58632;51.718;19.446;2024-01-16T07:43:09;98330.05;;;-4.63;100.00
70971;BME280;58632;51.718;19.446;2024-01-16T07:45:35;98332.89;;;-4.63;100.00
70971;BME280;58632;51.718;19.446;2024-01-16T07:48:00;98335.41;;;-4.61;100.00
70971;BME280;58632;51.718;19.446;2024-01-16T07:50:26;98341.77;;;-4.59;100.00
70971;BME280;58632;51.718;19.446;2024-01-16T07:52:51;98340.84;;;-4.55;100.00
70971;BME280;58632;51.718;19.446;2024-01-16T07:55:17;98345.52;;;-4.49;100.00
70971;BME280;58632;51.718;19.446;2024-01-16T07:57:43;98346.85;;;-4.41;100.00
70971;BME280;58632;51.718;19.446;2024-01-16T08:00:09;98345.41;;;-4.31;100.00
70971;BME280;58632;51.718;19.446;2024-01-16T08:02:37;98354.45;;;-4.18;100.00
70971;BME280;58632;51.718;19.446;2024-01-16T08:05:03;98349.83;;;-4.00;100.00
70971;BME280;58632;51.718;19.446;2024-01-16T08:07:28;98346.66;;;-3.82;100.00
70971;BME280;58632;51.718;19.446;2024-01-16T08:09:53;98348.10;;;-3.67;100.00
70971;BME280;58632;51.718;19.446;2024-01-16T08:12:19;98359.38;;;-3.52;100.00
70971;BME280;58632;51.718;19.446;2024-01-16T08:14:44;98361.31;;;-3.40;100.00
70971;BME280;58632;51.718;19.446;2024-01-16T08:17:10;98371.45;;;-3.30;100.00
70971;BME280;58632;51.718;19.446;2024-01-16T08:19:35;98374.77;;;-3.23;100.00
70971;BME280;58632;51.718;19.446;2024-01-16T08:22:01;98378.22;;;-3.16;100.00
70971;BME280;58632;51.718;19.446;2024-01-16T08:24:27;98378.97;;;-3.09;100.00
70971;BME280;58632;51.718;19.446;2024-01-16T08:26:53;98379.56;;;-3.04;100.00
70971;BME280;58632;51.718;19.446;2024-01-16T08:29:18;98383.27;;;-2.97;100.00
70971;BME280;58632;51.718;19.446;2024-01-16T08:31:43;98384.77;;;-2.91;100.00
70971;BME280;58632;51.718;19.446;2024-01-16T08:34:09;98388.36;;;-2.86;100.00
70971;BME280;58632;51.718;19.446;2024-01-16T08:36:34;98388.84;;;-2.84;100.00
70971;BME280;58632;51.718;19.446;2024-01-16T08:39:00;98394.73;;;-2.82;100.00
70971;BME280;58632;51.718;19.446;2024-01-16T08:41:25;98398.73;;;-2.81;100.00
70971;BME280;58632;51.718;19.446;2024-01-16T08:43:51;98407.00;;;-2.73;100.00
70971;BME280;58632;51.718;19.446;2024-01-16T08:46:19;98414.50;;;-2.67;100.00
70971;BME280;58632;51.718;19.446;2024-01-16T08:48:45;98417.34;;;-2.63;100.00
70971;BME280;58632;51.718;19.446;2024-01-16T08:51:11;98421.79;;;-2.59;100.00
70971;BME280;58632;51.718;19.446;2024-01-16T08:53:37;98424.67;;;-2.57;100.00
70971;BME280;58632;51.718;19.446;2024-01-16T08:56:03;98423.82;;;-2.59;100.00
70971;BME280;58632;51.718;19.446;2024-01-16T08:58:29;98427.67;;;-2.57;100.00
70971;BME280;58632;51.718;19.446;2024-01-16T09:00:55;98435.13;;;-2.48;100.00
70971;BME280;58632;51.718;19.446;2024-01-16T09:03:22;98438.02;;;-2.42;100.00
70971;BME280;58632;51.718;19.446;2024-01-16T09:05:48;98431.95;;;-2.37;100.00
70971;BME280;58632;51.718;19.446;2024-01-16T09:08:14;98437.42;;;-2.31;100.00
70971;BME280;58632;51.718;19.446;2024-01-16T09:10:41;98441.33;;;-2.27;100.00
70971;BME280;58632;51.718;19.446;2024-01-16T09:13:09;98444.38;;;-2.23;100.00
70971;BME280;58632;51.718;19.446;2024-01-16T09:15:35;98447.27;;;-2.17;100.00
70971;BME280;58632;51.718;19.446;2024-01-16T09:18:00;98446.45;;;-2.17;100.00
70971;BME280;58632;51.718;19.446;2024-01-16T09:20:26;98450.37;;;-2.16;100.00
70971;BME280;58632;51.718;19.446;2024-01-16T09:22:52;98454.35;;;-2.19;100.00
70971;BME280;58632;51.718;19.446;2024-01-16T09:25:17;98455.68;;;-2.20;100.00
70971;BME280;58632;51.718;19.446;2024-01-16T09:27:42;98455.80;;;-2.22;100.00
70971;BME280;58632;51.718;19.446;2024-01-16T09:30:08;98461.65;;;-2.24;100.00
70971;BME280;58632;51.718;19.446;2024-01-16T09:32:33;98460.09;;;-2.25;100.00
70971;BME280;58632;51.718;19.446;2024-01-16T09:35:01;98461.64;;;-2.25;100.00
70971;BME280;58632;51.718;19.446;2024-01-16T09:37:28;98466.58;;;-2.22;100.00
70971;BME280;58632;51.718;19.446;2024-01-16T09:39:54;98470.88;;;-2.23;100.00
70971;BME280;58632;51.718;19.446;2024-01-16T09:42:19;98467.02;;;-2.25;100.00
70971;BME280;58632;51.718;19.446;2024-01-16T09:44:44;98466.09;;;-2.22;100.00
70971;BME280;58632;51.718;19.446;2024-01-16T09:47:10;98470.05;;;-2.15;100.00
70971;BME280;58632;51.718;19.446;2024-01-16T09:49:36;98474.16;;;-2.02;100.00
70971;BME280;58632;51.718;19.446;2024-01-16T09:52:04;98476.38;;;-1.88;100.00
70971;BME280;58632;51.718;19.446;2024-01-16T09:54:33;98474.33;;;-1.80;100.00
70971;BME280;58632;51.718;19.446;2024-01-16T09:57:01;98473.48;;;-1.70;100.00
70971;BME280;58632;51.718;19.446;2024-01-16T09:59:29;98475.59;;;-1.58;100.00
70971;BME280;58632;51.718;19.446;2024-01-16T10:01:58;98478.93;;;-1.47;100.00
70971;BME280;58632;51.718;19.446;2024-01-16T10:04:28;98477.57;;;-1.30;100.00
70971;BME280;58632;51.718;19.446;2024-01-16T10:06:54;98478.70;;;-1.19;100.00
70971;BME280;58632;51.718;19.446;2024-01-16T10:09:20;98482.60;;;-1.14;100.00
70971;BME280;58632;51.718;19.446;2024-01-16T10:11:46;98481.22;;;-1.18;100.00
70971;BME280;58632;51.718;19.446;2024-01-16T10:14:12;98478.45;;;-1.22;97.68
70971;BME280;58632;51.718;19.446;2024-01-16T10:19:28;98477.07;;;-1.24;96.79
70971;BME280;58632;51.718;19.446;2024-01-16T10:22:04;98484.98;;;-1.19;97.60
70971;BME280;58632;51.718;19.446;2024-01-16T10:24:30;98488.73;;;-1.15;98.49
70971;BME280;58632;51.718;19.446;2024-01-16T10:26:59;98488.27;;;-1.10;99.43
70971;BME280;58632;51.718;19.446;2024-01-16T10:29:33;98489.66;;;-1.02;97.58
70971;BME280;58632;51.718;19.446;2024-01-16T10:31:59;98493.27;;;-1.07;94.23
70971;BME280;58632;51.718;19.446;2024-01-16T10:34:25;98492.15;;;-1.13;96.24
70971;BME280;58632;51.718;19.446;2024-01-16T10:36:51;98494.92;;;-1.17;97.68
70971;BME280;58632;51.718;19.446;2024-01-16T10:39:17;98499.78;;;-1.10;99.11
70971;BME280;58632;51.718;19.446;2024-01-16T10:41:53;98509.55;;;-1.00;96.98
70971;BME280;58632;51.718;19.446;2024-01-16T10:44:18;98502.13;;;-0.98;94.12
70971;BME280;58632;51.718;19.446;2024-01-16T10:46:46;98503.85;;;-0.88;95.11
70971;BME280;58632;51.718;19.446;2024-01-16T10:49:12;98510.83;;;-0.69;94.81
70971;BME280;58632;51.718;19.446;2024-01-16T10:51:40;98510.80;;;-0.53;90.67
70971;BME280;58632;51.718;19.446;2024-01-16T10:54:07;98508.41;;;-0.40;87.48
70971;BME280;58632;51.718;19.446;2024-01-16T10:56:37;98510.15;;;-0.36;86.72
70971;BME280;58632;51.718;19.446;2024-01-16T11:01:40;98511.71;;;-0.59;84.89
70971;BME280;58632;51.718;19.446;2024-01-16T11:04:08;98513.36;;;-0.80;89.08
70971;BME280;58632;51.718;19.446;2024-01-16T11:06:34;98517.93;;;-0.90;90.53
70971;BME280;58632;51.718;19.446;2024-01-16T11:09:00;98517.83;;;-0.99;92.73
70971;BME280;58632;51.718;19.446;2024-01-16T11:11:26;98522.42;;;-1.05;91.94
70971;BME280;58632;51.718;19.446;2024-01-16T11:13:52;98533.09;;;-1.10;94.84
70971;BME280;58632;51.718;19.446;2024-01-16T11:16:19;98540.95;;;-1.13;95.77
70971;BME280;58632;51.718;19.446;2024-01-16T11:18:45;98547.28;;;-1.27;92.00
70971;BME280;58632;51.718;19.446;2024-01-16T11:21:12;98552.81;;;-1.38;93.94
70971;BME280;58632;51.718;19.446;2024-01-16T11:23:38;98556.77;;;-1.37;95.69
70971;BME280;58632;51.718;19.446;2024-01-16T11:28:47;98558.01;;;-1.38;97.15
70971;BME280;58632;51.718;19.446;2024-01-16T11:31:29;98558.75;;;-1.36;96.08
70971;BME280;58632;51.718;19.446;2024-01-16T11:33:55;98558.66;;;-1.38;97.33
70971;BME280;58632;51.718;19.446;2024-01-16T11:39:25;98564.11;;;-1.03;99.06
70971;BME280;58632;51.718;19.446;2024-01-16T11:41:51;98565.86;;;-1.00;94.46
70971;BME280;58632;51.718;19.446;2024-01-16T11:47:01;98564.27;;;-1.04;93.82
70971;BME280;58632;51.718;19.446;2024-01-16T11:49:30;98553.13;;;-1.08;93.04
70971;BME280;58632;51.718;19.446;2024-01-16T11:51:57;98556.98;;;-1.07;95.49
70971;BME280;58632;51.718;19.446;2024-01-16T11:54:22;98560.52;;;-1.04;96.87
70971;BME280;58632;51.718;19.446;2024-01-16T11:56:55;98555.20;;;-1.05;97.07
70971;BME280;58632;51.718;19.446;2024-01-16T11:59:32;98551.44;;;-1.05;97.32
70971;BME280;58632;51.718;19.446;2024-01-16T12:02:07;98553.61;;;-1.08;97.78
70971;BME280;58632;51.718;19.446;2024-01-16T12:04:34;98552.42;;;-1.11;97.27
70971;BME280;58632;51.718;19.446;2024-01-16T12:07:00;98552.52;;;-1.07;98.21
70971;BME280;58632;51.718;19.446;2024-01-16T12:09:28;98555.27;;;-0.98;96.92
70971;BME280;58632;51.718;19.446;2024-01-16T12:11:57;98560.34;;;-0.90;98.40
70971;BME280;58632;51.718;19.446;2024-01-16T12:14:23;98564.77;;;-0.55;99.91
70971;BME280;58632;51.718;19.446;2024-01-16T12:16:49;98562.63;;;-0.24;97.14
70971;BME280;58632;51.718;19.446;2024-01-16T12:19:14;98572.58;;;-0.17;95.33
70971;BME280;58632;51.718;19.446;2024-01-16T12:21:40;98574.80;;;-0.06;95.93
70971;BME280;58632;51.718;19.446;2024-01-16T12:24:06;98572.71;;;0.01;95.19
70971;BME280;58632;51.718;19.446;2024-01-16T12:26:32;98577.61;;;0.01;93.53
70971;BME280;58632;51.718;19.446;2024-01-16T12:28:57;98584.41;;;-0.02;88.63
70971;BME280;58632;51.718;19.446;2024-01-16T12:31:23;98588.54;;;0.01;90.30
70971;BME280;58632;51.718;19.446;2024-01-16T12:33:52;98588.61;;;0.11;90.00
70971;BME280;58632;51.718;19.446;2024-01-16T12:36:18;98585.29;;;0.22;88.11
70971;BME280;58632;51.718;19.446;2024-01-16T12:38:43;98584.43;;;0.27;87.91
70971;BME280;58632;51.718;19.446;2024-01-16T12:41:09;98591.91;;;0.29;88.63
70971;BME280;58632;51.718;19.446;2024-01-16T12:43:35;98593.81;;;0.20;83.54
70971;BME280;58632;51.718;19.446;2024-01-16T12:46:02;98599.85;;;0.12;85.84
70971;BME280;58632;51.718;19.446;2024-01-16T12:48:27;98605.89;;;0.05;85.31
70971;BME280;58632;51.718;19.446;2024-01-16T12:50:59;98610.75;;;-0.04;82.21
70971;BME280;58632;51.718;19.446;2024-01-16T12:53:27;98610.89;;;-0.08;85.64
70971;BME280;58632;51.718;19.446;2024-01-16T12:55:59;98611.24;;;-0.05;88.27